createdAt,value
2023-03-26T00:01:16.605Z,100322.84
2023-03-26T00:03:46.928Z,100322.75
2023-03-26T00:06:15.905Z,100324.28
2023-03-26T00:08:45.063Z,100335.16
2023-03-26T00:11:14.436Z,100325.78
2023-03-26T00:13:43.676Z,100321.69
2023-03-26T00:16:13.623Z,100320.03
2023-03-26T00:18:42.545Z,100329.59
2023-03-26T00:21:12.586Z,100330.09
2023-03-26T00:23:39.163Z,100321.69
2023-03-26T00:26:10.609Z,100304.75
2023-03-26T00:28:40.242Z,100318.97
2023-03-26T00:31:11.329Z,100316.72
2023-03-26T00:33:40.642Z,100319.06
2023-03-26T00:36:17.303Z,100317.88
2023-03-26T00:38:46.818Z,100318.22
2023-03-26T00:41:22.683Z,100311.25
2023-03-26T00:43:51.377Z,100300.69
2023-03-26T00:46:17.944Z,100297.41
2023-03-26T00:48:46.222Z,100301.41
2023-03-26T00:51:15.540Z,100292.88
2023-03-26T00:53:43.948Z,100291.13
2023-03-26T00:56:11.102Z,100286.97
2023-03-26T00:58:38.233Z,100294.44
2023-03-26T01:01:09.097Z,100281.19
2023-03-26T01:03:38.162Z,100291.59
2023-03-26T01:06:09.987Z,100279.63
2023-03-26T01:08:54.601Z,100276.19
2023-03-26T01:11:25.532Z,100283.19
2023-03-26T01:14:02.644Z,100276.06
2023-03-26T01:16:39.860Z,100251.34
2023-03-26T01:19:12.870Z,100255.59
2023-03-26T01:21:39.726Z,100247.53
2023-03-26T01:24:08.635Z,100249.78
2023-03-26T01:26:55.317Z,100245.03
2023-03-26T01:29:53.504Z,100245.97
2023-03-26T01:32:41.679Z,100242.91
2023-03-26T01:35:45.818Z,100234.38
2023-03-26T01:38:36.658Z,100235.56
2023-03-26T01:41:43.909Z,100223.84
2023-03-26T01:44:19.867Z,100221.69
2023-03-26T01:46:47.682Z,100216.00
2023-03-26T01:49:14.295Z,100222.13
2023-03-26T01:51:42.814Z,100215.63
2023-03-26T01:54:16.911Z,100207.94
2023-03-26T01:57:17.449Z,100212.69
2023-03-26T01:59:50.030Z,100216.13
2023-03-26T02:02:54.918Z,100207.59
2023-03-26T02:05:28.944Z,100202.03
2023-03-26T02:08:09.579Z,100199.34
2023-03-26T02:10:41.779Z,100195.69
2023-03-26T02:13:08.290Z,100189.44
2023-03-26T02:15:34.727Z,100193.69
2023-03-26T02:18:01.901Z,100183.19
2023-03-26T02:20:31.232Z,100182.09
2023-03-26T02:22:58.071Z,100175.84
2023-03-26T02:25:24.906Z,100171.25
2023-03-26T02:27:53.126Z,100169.47
2023-03-26T02:30:26.000Z,100166.03
2023-03-26T02:32:54.199Z,100156.69
2023-03-26T02:35:22.228Z,100154.94
2023-03-26T02:37:50.822Z,100149.38
2023-03-26T02:40:18.737Z,100151.03
2023-03-26T02:42:45.594Z,100141.69
2023-03-26T02:45:12.041Z,100139.19
2023-03-26T02:47:38.552Z,100135.03
2023-03-26T02:50:05.495Z,100130.56
2023-03-26T02:52:33.622Z,100117.78
2023-03-26T02:55:00.079Z,100113.53
2023-03-26T02:57:26.654Z,100106.66
2023-03-26T02:59:53.140Z,100108.22
2023-03-26T03:02:20.096Z,100106.66
2023-03-26T03:04:46.557Z,100099.56
2023-03-26T03:07:17.908Z,100092.81
2023-03-26T03:09:44.336Z,100080.31
2023-03-26T03:12:11.107Z,100087.88
2023-03-26T03:14:37.792Z,100091.06
2023-03-26T03:17:04.270Z,100087.41
2023-03-26T03:19:30.912Z,100078.78
2023-03-26T03:21:57.339Z,100073.72
2023-03-26T03:24:23.876Z,100063.31
2023-03-26T03:26:54.981Z,100057.63
2023-03-26T03:29:21.406Z,100068.25
2023-03-26T03:34:14.418Z,100059.41
2023-03-26T03:36:40.823Z,100056.66
2023-03-26T03:39:07.333Z,100063.56
2023-03-26T03:41:34.968Z,100054.06
2023-03-26T03:44:01.684Z,100051.47
2023-03-26T03:46:28.464Z,100041.06
2023-03-26T03:48:54.943Z,100028.31
2023-03-26T03:51:21.589Z,100041.53
2023-03-26T03:53:49.364Z,100034.00
2023-03-26T03:56:19.150Z,100046.50
2023-03-26T03:58:46.267Z,100021.44
2023-03-26T04:01:13.507Z,100030.44
2023-03-26T04:03:46.553Z,100025.69
2023-03-26T04:06:13.505Z,100027.09
2023-03-26T04:08:39.952Z,100013.03
2023-03-26T04:11:06.478Z,100013.28
2023-03-26T04:13:33.010Z,100008.41
2023-03-26T04:15:59.956Z,99985.47
2023-03-26T04:18:27.709Z,99999.66
2023-03-26T04:20:55.649Z,99985.94
2023-03-26T04:23:23.196Z,99980.97
2023-03-26T04:25:54.063Z,99977.31
2023-03-26T04:28:27.582Z,99975.19
2023-03-26T04:30:57.033Z,99972.56
2023-03-26T04:33:24.953Z,99964.19
2023-03-26T04:35:51.794Z,99964.88
2023-03-26T04:38:18.580Z,99945.88
2023-03-26T04:40:47.404Z,99956.59
2023-03-26T04:43:17.832Z,99947.03
2023-03-26T04:45:48.100Z,99951.41
2023-03-26T04:48:14.715Z,99948.94
2023-03-26T04:50:45.357Z,99945.38
2023-03-26T04:53:17.898Z,99946.19
2023-03-26T04:55:59.941Z,99945.38
2023-03-26T04:58:32.611Z,99941.00
2023-03-26T05:01:09.900Z,99937.47
2023-03-26T05:03:39.475Z,99936.88
2023-03-26T05:06:06.314Z,99939.59
2023-03-26T05:08:32.821Z,99932.88
2023-03-26T05:10:59.336Z,99935.72
2023-03-26T05:13:25.806Z,99934.75
2023-03-26T05:15:52.599Z,99931.69
2023-03-26T05:18:19.128Z,99925.69
2023-03-26T05:20:46.375Z,99918.47
2023-03-26T05:23:12.979Z,99920.00
2023-03-26T05:25:39.423Z,99911.25
2023-03-26T05:28:06.215Z,99906.19
2023-03-26T05:30:32.675Z,99904.28
2023-03-26T05:32:59.150Z,99894.69
2023-03-26T05:35:26.045Z,99899.56
2023-03-26T05:37:52.528Z,99889.75
2023-03-26T05:40:20.147Z,99878.66
2023-03-26T05:42:46.717Z,99869.41
2023-03-26T05:45:15.355Z,99875.31
2023-03-26T05:47:41.875Z,99867.25
2023-03-26T05:50:09.432Z,99853.81
2023-03-26T05:52:35.954Z,99850.69
2023-03-26T05:55:03.095Z,99851.53
2023-03-26T05:57:32.691Z,99845.38
2023-03-26T05:59:59.245Z,99832.16
2023-03-26T06:02:25.663Z,99832.84
2023-03-26T06:04:52.518Z,99805.56
2023-03-26T06:07:19.825Z,99824.56
2023-03-26T06:09:46.684Z,99810.03
2023-03-26T06:12:13.962Z,99826.09
2023-03-26T06:14:42.793Z,99805.78
2023-03-26T06:17:10.146Z,99811.44
2023-03-26T06:19:36.798Z,99805.91
2023-03-26T06:22:04.115Z,99809.91
2023-03-26T06:24:30.703Z,99808.84
2023-03-26T06:26:57.139Z,99803.50
2023-03-26T06:29:24.657Z,99801.03
2023-03-26T06:31:51.177Z,99789.94
2023-03-26T06:34:17.743Z,99795.00
2023-03-26T06:36:44.174Z,99795.84
2023-03-26T06:39:10.625Z,99802.00
2023-03-26T06:41:37.087Z,99798.53
2023-03-26T06:44:03.514Z,99800.47
2023-03-26T06:46:30.380Z,99797.84
2023-03-26T06:48:56.826Z,99804.00
2023-03-26T06:51:23.325Z,99801.44
2023-03-26T06:53:52.783Z,99804.03
2023-03-26T06:56:19.279Z,99792.25
2023-03-26T06:58:45.779Z,99797.38
2023-03-26T07:01:12.225Z,99793.81
2023-03-26T07:03:38.671Z,99786.16
2023-03-26T07:06:05.409Z,99783.56
2023-03-26T07:08:31.909Z,99782.47
2023-03-26T07:10:58.344Z,99782.03
2023-03-26T07:13:24.851Z,99783.84
2023-03-26T07:15:51.414Z,99770.72
2023-03-26T07:18:18.110Z,99738.28
2023-03-26T07:20:45.556Z,99760.38
2023-03-26T07:23:13.703Z,99771.78
2023-03-26T07:25:41.110Z,99744.69
2023-03-26T07:28:11.391Z,99762.72
2023-03-26T07:30:47.205Z,99754.81
2023-03-26T07:33:27.044Z,99761.19
2023-03-26T07:36:21.029Z,99752.94
2023-03-26T07:39:13.058Z,99748.66
2023-03-26T07:41:51.620Z,99738.03
2023-03-26T07:44:21.127Z,99737.91
2023-03-26T07:46:49.115Z,99739.13
2023-03-26T07:49:17.866Z,99737.38
2023-03-26T07:51:44.526Z,99733.13
2023-03-26T07:54:11.376Z,99730.28
2023-03-26T07:56:46.167Z,99730.63
2023-03-26T07:59:33.158Z,99728.25
2023-03-26T08:02:18.466Z,99696.91
2023-03-26T08:05:04.474Z,99704.47
2023-03-26T08:08:00.860Z,99718.38
2023-03-26T08:10:38.092Z,99718.28
2023-03-26T08:13:25.611Z,99725.81
2023-03-26T08:16:08.137Z,99718.22
2023-03-26T08:19:03.416Z,99715.50
2023-03-26T08:21:42.192Z,99727.66
2023-03-26T08:24:53.410Z,99718.69
2023-03-26T08:27:41.412Z,99722.56
2023-03-26T08:30:27.316Z,99709.13
2023-03-26T08:33:04.831Z,99719.97
2023-03-26T08:35:31.376Z,99707.81
2023-03-26T08:37:57.961Z,99713.59
2023-03-26T08:40:47.375Z,99693.16
2023-03-26T08:43:41.863Z,99710.84
2023-03-26T08:46:30.224Z,99704.47
2023-03-26T08:49:09.965Z,99709.28
2023-03-26T08:52:04.474Z,99708.44
2023-03-26T08:54:49.438Z,99700.06
2023-03-26T08:57:37.068Z,99699.97
2023-03-26T09:00:10.915Z,99701.50
2023-03-26T09:03:09.718Z,99693.34
2023-03-26T09:06:03.005Z,99693.69
2023-03-26T09:08:54.174Z,99680.28
2023-03-26T09:12:07.764Z,99688.91
2023-03-26T09:14:52.662Z,99682.56
2023-03-26T09:17:40.831Z,99685.53
2023-03-26T09:20:45.479Z,99678.88
2023-03-26T09:23:17.681Z,99680.47
2023-03-26T09:25:53.198Z,99674.31
2023-03-26T09:28:41.163Z,99669.22
2023-03-26T09:31:10.572Z,99666.78
2023-03-26T09:34:01.876Z,99665.38
2023-03-26T09:36:57.197Z,99657.19
2023-03-26T09:39:55.309Z,99657.66
2023-03-26T09:42:37.477Z,99645.84
2023-03-26T09:45:03.837Z,99652.53
2023-03-26T09:47:39.371Z,99642.81
2023-03-26T09:50:18.278Z,99646.59
2023-03-26T09:53:12.682Z,99632.06
2023-03-26T09:56:09.091Z,99636.22
2023-03-26T09:58:52.134Z,99636.22
2023-03-26T10:01:34.645Z,99629.94
2023-03-26T10:04:29.330Z,99611.06
2023-03-26T10:07:09.342Z,99624.06
2023-03-26T10:09:41.298Z,99625.25
2023-03-26T10:12:07.733Z,99632.53
2023-03-26T10:14:59.016Z,99628.75
2023-03-26T10:17:42.243Z,99615.78
2023-03-26T10:20:09.652Z,99619.88
2023-03-26T10:22:54.748Z,99617.84
2023-03-26T10:25:30.921Z,99620.44
2023-03-26T10:28:21.131Z,99614.28
2023-03-26T10:31:16.377Z,99607.72
2023-03-26T10:33:54.244Z,99609.63
2023-03-26T10:36:32.827Z,99609.94
2023-03-26T10:39:35.921Z,99604.25
2023-03-26T10:42:24.125Z,99603.03
2023-03-26T10:45:14.080Z,99603.66
2023-03-26T10:48:18.203Z,99592.81
2023-03-26T10:51:22.309Z,99587.00
2023-03-26T10:53:58.165Z,99595.22
2023-03-26T10:56:44.152Z,99592.41
2023-03-26T10:59:16.453Z,99588.38
2023-03-26T11:01:51.730Z,99595.09
2023-03-26T11:04:36.999Z,99585.72
2023-03-26T11:07:22.012Z,99582.00
2023-03-26T11:10:16.591Z,99582.16
2023-03-26T11:12:52.922Z,99586.88
2023-03-26T11:15:31.164Z,99581.47
2023-03-26T11:18:22.946Z,99578.09
2023-03-26T11:21:25.342Z,99580.72
2023-03-26T11:24:07.039Z,99584.75
2023-03-26T11:26:41.566Z,99586.09
2023-03-26T11:29:31.630Z,99593.97
2023-03-26T11:32:06.119Z,99588.00
2023-03-26T11:34:44.265Z,99585.56
2023-03-26T11:37:20.420Z,99589.41
2023-03-26T11:39:56.805Z,99589.16
2023-03-26T11:42:24.838Z,99587.09
2023-03-26T11:44:57.548Z,99588.69
2023-03-26T11:47:32.385Z,99591.66
2023-03-26T11:50:02.168Z,99580.19
2023-03-26T11:52:28.749Z,99585.38
2023-03-26T11:54:58.441Z,99588.25
2023-03-26T11:57:34.799Z,99586.34
2023-03-26T12:00:16.163Z,99585.00
2023-03-26T12:02:44.110Z,99591.72
2023-03-26T12:05:22.576Z,99592.28
2023-03-26T12:08:04.228Z,99592.41
2023-03-26T12:10:37.582Z,99595.28
2023-03-26T12:13:55.444Z,99581.19
2023-03-26T12:16:22.666Z,99600.66
2023-03-26T12:19:06.143Z,99590.94
2023-03-26T12:21:47.522Z,99592.31
2023-03-26T12:24:33.954Z,99597.84
2023-03-26T12:27:22.821Z,99597.31
2023-03-26T12:29:59.987Z,99592.94
2023-03-26T12:32:45.193Z,99589.09
2023-03-26T12:35:27.202Z,99599.00
2023-03-26T12:37:55.733Z,99596.78
2023-03-26T12:40:25.109Z,99595.53
2023-03-26T12:44:56.640Z,99606.75
2023-03-26T12:45:43.316Z,99599.94
2023-03-26T12:48:15.719Z,99599.13
2023-03-26T12:50:42.757Z,99599.94
2023-03-26T12:53:29.084Z,99607.47
2023-03-26T12:56:08.517Z,99615.72
2023-03-26T12:59:05.234Z,99606.00
2023-03-26T13:01:45.888Z,99611.91
2023-03-26T13:04:34.741Z,99613.97
2023-03-26T13:07:15.290Z,99611.66
2023-03-26T13:09:50.989Z,99617.16
2023-03-26T13:12:27.996Z,99619.63
2023-03-26T13:15:16.648Z,99619.22
2023-03-26T13:17:53.321Z,99622.50
2023-03-26T13:20:30.271Z,99621.31
2023-03-26T13:23:21.243Z,99626.00
2023-03-26T13:26:11.358Z,99635.16
2023-03-26T13:29:06.928Z,99619.78
2023-03-26T13:31:43.995Z,99630.63
2023-03-26T13:34:49.128Z,99629.13
2023-03-26T13:37:48.704Z,99634.31
2023-03-26T13:40:29.835Z,99626.50
2023-03-26T13:43:05.318Z,99634.19
2023-03-26T13:45:50.744Z,99645.94
2023-03-26T13:49:05.637Z,99651.44
2023-03-26T13:51:34.714Z,99648.13
2023-03-26T13:54:14.902Z,99647.56
2023-03-26T13:56:54.926Z,99655.13
2023-03-26T13:59:31.896Z,99642.66
2023-03-26T14:02:01.665Z,99645.38
2023-03-26T14:04:33.699Z,99656.13
2023-03-26T14:07:11.135Z,99644.75
2023-03-26T14:09:51.367Z,99652.53
2023-03-26T14:12:53.076Z,99666.41
2023-03-26T14:15:29.399Z,99658.91
2023-03-26T14:18:26.049Z,99650.41
2023-03-26T14:21:28.041Z,99657.81
2023-03-26T14:24:12.891Z,99661.09
2023-03-26T14:26:40.347Z,99666.47
2023-03-26T14:29:24.483Z,99664.97
2023-03-26T14:32:09.697Z,99667.44
2023-03-26T14:34:39.464Z,99668.56
2023-03-26T14:37:27.261Z,99678.44
2023-03-26T14:40:19.308Z,99673.78
2023-03-26T14:43:04.283Z,99676.22
2023-03-26T14:45:45.953Z,99676.22
2023-03-26T14:48:42.818Z,99682.28
2023-03-26T14:51:26.733Z,99685.97
2023-03-26T14:53:58.935Z,99677.88
2023-03-26T14:56:51.569Z,99692.41
2023-03-26T14:59:38.814Z,99694.91
2023-03-26T15:03:02.247Z,99705.88
2023-03-26T15:05:45.786Z,99698.47
2023-03-26T15:08:48.575Z,99704.78
2023-03-26T15:11:41.705Z,99710.78
2023-03-26T15:14:40.656Z,99714.34
2023-03-26T15:17:28.831Z,99718.16
2023-03-26T15:20:20.995Z,99711.84
2023-03-26T15:23:09.342Z,99720.22
2023-03-26T15:26:19.501Z,99728.88
2023-03-26T15:29:04.602Z,99723.94
2023-03-26T15:31:42.514Z,99727.63
2023-03-26T15:34:30.659Z,99728.41
2023-03-26T15:37:22.752Z,99737.44
2023-03-26T15:40:28.246Z,99741.47
2023-03-26T15:43:16.733Z,99744.63
2023-03-26T15:45:46.314Z,99755.84
2023-03-26T15:48:12.929Z,99752.00
2023-03-26T15:50:57.120Z,99757.59
2023-03-26T15:53:33.568Z,99762.91
2023-03-26T15:56:14.794Z,99772.63
2023-03-26T15:59:20.944Z,99771.25
2023-03-26T16:02:19.407Z,99790.25
2023-03-26T16:05:16.987Z,99790.47
2023-03-26T16:07:53.936Z,99796.34
2023-03-26T16:10:20.264Z,99802.63
2023-03-26T16:13:12.417Z,99808.88
2023-03-26T16:15:39.215Z,99805.72
2023-03-26T16:18:09.271Z,99820.50
2023-03-26T16:20:46.640Z,99811.66
2023-03-26T16:23:47.657Z,99828.44
2023-03-26T16:26:27.582Z,99819.63
2023-03-26T16:28:53.963Z,99847.47
2023-03-26T16:31:37.115Z,99841.00
2023-03-26T16:34:05.225Z,99855.88
2023-03-26T16:36:43.432Z,99855.34
2023-03-26T16:39:21.472Z,99854.03
2023-03-26T16:41:56.364Z,99859.25
2023-03-26T16:45:14.583Z,99878.41
2023-03-26T16:47:55.301Z,99876.16
2023-03-26T16:50:33.344Z,99878.75
2023-03-26T16:53:24.195Z,99883.16
2023-03-26T16:55:59.322Z,99885.16
2023-03-26T16:58:28.919Z,99890.38
2023-03-26T17:01:06.576Z,99891.69
2023-03-26T17:03:53.144Z,99907.88
2023-03-26T17:06:47.794Z,99921.00
2023-03-26T17:09:53.740Z,99927.72
2023-03-26T17:12:44.293Z,99939.91
2023-03-26T17:15:21.112Z,99937.19
2023-03-26T17:18:18.641Z,99947.59
2023-03-26T17:20:58.931Z,99953.03
2023-03-26T17:23:43.858Z,99961.44
2023-03-26T17:26:27.684Z,99973.59
2023-03-26T17:29:16.026Z,99974.78
2023-03-26T17:32:04.579Z,99980.44
2023-03-26T17:34:49.381Z,99996.41
2023-03-26T17:37:21.993Z,99997.59
2023-03-26T17:39:57.542Z,100006.53
2023-03-26T17:42:28.338Z,100009.38
2023-03-26T17:44:55.673Z,100020.72
2023-03-26T17:47:40.426Z,100020.22
2023-03-26T17:50:11.697Z,100021.06
2023-03-26T17:52:48.649Z,100004.75
2023-03-26T17:55:17.062Z,100036.44
2023-03-26T17:57:46.525Z,100046.81
2023-03-26T18:00:31.448Z,100060.06
2023-03-26T18:03:07.583Z,100053.78
2023-03-26T18:05:38.699Z,100057.09
2023-03-26T18:08:08.238Z,100060.63
2023-03-26T18:10:53.060Z,100070.09
2023-03-26T18:13:50.554Z,100066.66
2023-03-26T18:16:20.893Z,100083.19
2023-03-26T18:18:57.003Z,100090.50
2023-03-26T18:21:39.520Z,100090.84
2023-03-26T18:24:08.831Z,100092.00
2023-03-26T18:26:41.060Z,100098.34
2023-03-26T18:29:29.048Z,100118.44
2023-03-26T18:32:22.766Z,100120.22
2023-03-26T18:34:56.944Z,100123.16
2023-03-26T18:37:27.263Z,100130.44
2023-03-26T18:40:20.042Z,100135.88
2023-03-26T18:42:56.381Z,100141.16
2023-03-26T18:45:34.188Z,100156.97
2023-03-26T18:48:10.324Z,100157.78
2023-03-26T18:50:40.774Z,100166.63
2023-03-26T18:53:15.362Z,100170.28
2023-03-26T18:55:43.898Z,100176.72
2023-03-26T18:58:23.643Z,100187.72
2023-03-26T19:00:53.265Z,100190.75
2023-03-26T19:03:24.242Z,100189.22
2023-03-26T19:05:56.543Z,100206.03
2023-03-26T19:08:25.254Z,100208.34
2023-03-26T19:10:54.499Z,100204.81
2023-03-26T19:13:21.903Z,100220.56
2023-03-26T19:15:51.993Z,100215.59
2023-03-26T19:18:26.492Z,100225.50
2023-03-26T19:20:59.425Z,100224.66
2023-03-26T19:23:33.470Z,100231.00
2023-03-26T19:26:02.518Z,100258.59
2023-03-26T19:28:33.686Z,100257.69
2023-03-26T19:31:15.648Z,100264.00
2023-03-26T19:33:43.697Z,100258.50
2023-03-26T19:36:13.075Z,100266.19
2023-03-26T19:38:54.236Z,100258.63
2023-03-26T19:41:24.884Z,100268.88
2023-03-26T19:43:55.954Z,100271.78
2023-03-26T19:46:23.375Z,100279.56
2023-03-26T19:48:53.319Z,100286.00
2023-03-26T19:51:31.493Z,100277.75
2023-03-26T19:54:00.859Z,100293.78
2023-03-26T19:56:28.653Z,100288.13
2023-03-26T19:58:55.631Z,100271.09
2023-03-26T20:01:28.434Z,100297.47
2023-03-26T20:03:58.131Z,100303.38
2023-03-26T20:06:41.691Z,100306.38
2023-03-26T20:09:10.862Z,100321.28
2023-03-26T20:11:39.261Z,100323.06
2023-03-26T20:14:25.610Z,100323.66
2023-03-26T20:16:52.920Z,100326.34
2023-03-26T20:19:20.545Z,100345.22
2023-03-26T20:21:46.983Z,100347.94
2023-03-26T20:24:16.763Z,100354.88
2023-03-26T20:26:44.048Z,100342.28
2023-03-26T20:29:11.511Z,100357.97
2023-03-26T20:31:38.486Z,100377.78
2023-03-26T20:34:10.154Z,100372.59
2023-03-26T20:36:36.877Z,100376.84
2023-03-26T20:39:07.927Z,100388.31
2023-03-26T20:41:35.857Z,100382.81
2023-03-26T20:44:04.877Z,100396.59
2023-03-26T20:46:31.947Z,100390.41
2023-03-26T20:48:59.765Z,100405.50
2023-03-26T20:51:28.265Z,100400.97
2023-03-26T20:53:55.768Z,100405.44
2023-03-26T20:56:22.662Z,100409.56
2023-03-26T20:59:03.474Z,100421.91
2023-03-26T21:01:34.739Z,100432.06
2023-03-26T21:04:04.144Z,100442.63
2023-03-26T21:06:30.624Z,100442.72
2023-03-26T21:08:57.368Z,100438.91
2023-03-26T21:11:32.876Z,100446.16
2023-03-26T21:14:18.450Z,100464.94
2023-03-26T21:16:45.322Z,100464.16
2023-03-26T21:19:12.321Z,100458.72
2023-03-26T21:21:56.061Z,100480.56
2023-03-26T21:24:48.250Z,100468.91
2023-03-26T21:27:26.292Z,100480.91
2023-03-26T21:29:58.083Z,100493.13
2023-03-26T21:32:25.152Z,100494.16
2023-03-26T21:34:58.670Z,100496.75
2023-03-26T21:37:27.010Z,100503.47
2023-03-26T21:39:53.748Z,100517.00
2023-03-26T21:42:20.503Z,100518.13
2023-03-26T21:44:47.681Z,100526.16
2023-03-26T21:47:14.862Z,100532.34
2023-03-26T21:49:41.670Z,100535.84
2023-03-26T21:52:14.596Z,100537.88
2023-03-26T21:54:43.091Z,100536.66
2023-03-26T21:57:50.630Z,100548.75
2023-03-26T22:00:18.695Z,100557.44
2023-03-26T22:03:11.429Z,100563.69
2023-03-26T22:05:47.946Z,100575.81
2023-03-26T22:08:26.528Z,100587.91
2023-03-26T22:10:53.043Z,100579.00
2023-03-26T22:13:19.549Z,100588.03
2023-03-26T22:15:46.149Z,100608.84
2023-03-26T22:18:14.186Z,100611.69
2023-03-26T22:20:42.670Z,100605.72
2023-03-26T22:23:09.650Z,100623.84
2023-03-26T22:25:36.072Z,100622.59
2023-03-26T22:28:02.636Z,100622.19
2023-03-26T22:30:29.076Z,100639.28
2023-03-26T22:32:55.831Z,100645.63
2023-03-26T22:35:22.851Z,100654.03
2023-03-26T22:37:49.368Z,100648.53
2023-03-26T22:40:16.115Z,100661.78
2023-03-26T22:42:42.603Z,100674.78
2023-03-26T22:45:09.965Z,100680.88
2023-03-26T22:47:36.989Z,100681.00
2023-03-26T22:50:04.540Z,100679.13
2023-03-26T22:52:31.346Z,100689.75
2023-03-26T22:54:57.853Z,100697.44
2023-03-26T22:57:24.478Z,100709.59
2023-03-26T22:59:51.914Z,100688.69
2023-03-26T23:02:19.038Z,100709.25
2023-03-26T23:04:46.316Z,100706.22
2023-03-26T23:07:13.052Z,100710.75
2023-03-26T23:09:39.466Z,100728.25
2023-03-26T23:12:06.601Z,100733.50
2023-03-26T23:14:33.051Z,100732.97
2023-03-26T23:16:59.700Z,100742.91
2023-03-26T23:19:26.406Z,100747.53
2023-03-26T23:21:52.829Z,100745.22
2023-03-26T23:24:19.712Z,100759.75
2023-03-26T23:26:50.635Z,100763.38
2023-03-26T23:29:18.300Z,100756.38
2023-03-26T23:31:44.841Z,100770.78
2023-03-26T23:34:13.401Z,100786.34
2023-03-26T23:36:40.868Z,100768.84
2023-03-26T23:39:09.165Z,100794.19
2023-03-26T23:41:36.711Z,100807.00
2023-03-26T23:44:03.844Z,100799.25
2023-03-26T23:46:33.020Z,100813.03
2023-03-26T23:49:02.124Z,100802.16
2023-03-26T23:51:30.282Z,100829.38
2023-03-26T23:53:57.185Z,100828.59
2023-03-26T23:56:23.862Z,100829.00
2023-03-26T23:58:50.337Z,100842.34
